Time;durP1;ratioP1;P1;durP2;ratioP2;P2;SDS_P1;SDS_P2;PMS_P1;PMS_P2;Temp;Humidity;BMP_temperature;BMP_pressure;BME280_temperature;BME280_humidity;BME280_pressure;Samples;Min_cycle;Max_cycle;Signal;HPM_P1;HPM_P2
2023/04/20 00:02:23;;;;;;;;;;;;;;;13.85;90.24;99060.50;5031741;28;20389;-40
2023/04/20 00:04:49;;;;;;;;;;;;;;;14.69;88.09;99033.31;5032758;28;19920;-40
2023/04/20 00:07:15;;;;;;;;;;;;;;;14.50;85.46;99016.91;5032831;28;19955;-40
2023/04/20 00:09:40;;;;;;;;;;;;;;;14.11;88.51;99046.34;5028905;28;19943;-40
2023/04/20 00:12:06;;;;;;;;;;;;;;;13.83;87.16;99036.41;5031772;28;19921;-40
2023/04/20 00:14:31;;;;;;;;;;;;;;;13.97;89.23;99044.41;5032707;28;19921;-40
2023/04/20 00:16:56;;;;;;;;;;;;;;;14.54;86.95;99023.63;5031726;28;19917;-40
2023/04/20 00:19:22;;;;;;;;;;;;;;;15.07;86.42;99012.41;5031807;28;19960;-40
2023/04/20 00:21:47;;;;;;;;;;;;;;;14.31;87.21;99019.53;5032038;28;20590;-40
2023/04/20 00:24:12;;;;;;;;;;;;;;;13.16;92.43;99072.03;5031178;28;19966;-40
2023/04/20 00:26:38;;;;;;;;;;;;;;;12.03;99.92;99127.16;5030891;28;19920;-40
2023/04/20 00:29:03;;;;;;;;;;;;;;;12.22;100.00;99134.25;5029899;28;19936;-40
2023/04/20 00:31:29;;;;;;;;;;;;;;;13.16;100.00;99100.47;5009381;28;19924;-40
2023/04/20 00:33:55;;;;;;;;;;;;;;;14.26;95.98;99050.00;5029681;28;19928;-40
2023/04/20 00:36:20;;;;;;;;;;;;;;;13.78;95.18;99050.41;5031081;28;19924;-40
2023/04/20 00:38:46;;;;;;;;;;;;;;;14.47;93.61;99030.84;5028234;28;19951;-40
2023/04/20 00:41:11;;;;;;;;;;;;;;;14.68;92.50;99025.59;5029372;28;19924;-40
2023/04/20 00:43:36;;;;;;;;;;;;;;;14.84;90.33;99008.38;5031391;28;19971;-40
2023/04/20 00:46:02;;;;;;;;;;;;;;;14.80;89.91;99009.41;5031357;28;20011;-40
2023/04/20 00:48:27;;;;;;;;;;;;;;;14.78;89.33;99006.06;5029776;28;20074;-39
2023/04/20 00:50:53;;;;;;;;;;;;;;;14.36;88.86;98989.91;5030735;28;21647;-40
2023/04/20 00:53:18;;;;;;;;;;;;;;;13.61;93.55;99037.34;5010017;28;21698;-40
2023/04/20 00:55:43;;;;;;;;;;;;;;;14.42;92.09;99017.28;5029673;28;19956;-40
2023/04/20 00:58:10;;;;;;;;;;;;;;;14.61;90.26;98987.00;5029929;28;19912;-40
2023/04/20 01:00:35;;;;;;;;;;;;;;;14.49;90.71;98989.34;5009633;28;19925;-40
2023/04/20 01:03:01;;;;;;;;;;;;;;;14.32;90.36;98987.53;5029373;28;20042;-40
2023/04/20 01:05:26;;;;;;;;;;;;;;;14.31;90.09;98980.69;5012087;28;19920;-40
2023/04/20 01:07:51;;;;;;;;;;;;;;;13.77;90.07;98975.41;5029453;28;19928;-40
2023/04/20 01:10:17;;;;;;;;;;;;;;;13.05;95.11;99019.91;5030139;28;19931;-40
2023/04/20 01:12:42;;;;;;;;;;;;;;;12.53;96.80;99021.13;5029622;28;19932;-40
2023/04/20 01:15:08;;;;;;;;;;;;;;;12.17;100.00;99043.22;5031997;28;20463;-40
2023/04/20 01:17:33;;;;;;;;;;;;;;;11.66;100.00;99070.84;5030184;28;19951;-40
2023/04/20 01:19:59;;;;;;;;;;;;;;;11.32;100.00;99084.06;5030402;28;21363;-40
2023/04/20 01:22:24;;;;;;;;;;;;;;;12.31;100.00;99049.50;5030362;28;19923;-40
2023/04/20 01:24:49;;;;;;;;;;;;;;;13.41;100.00;99003.75;5032666;28;19924;-40
2023/04/20 01:27:15;;;;;;;;;;;;;;;14.18;97.37;98965.69;5030391;28;19928;-40
2023/04/20 01:29:41;;;;;;;;;;;;;;;13.54;97.05;98974.69;5027667;28;19929;-40
2023/04/20 01:32:06;;;;;;;;;;;;;;;12.00;100.00;99013.72;5029182;28;19931;-40
2023/04/20 01:34:32;;;;;;;;;;;;;;;11.59;100.00;99031.53;5028664;28;19917;-40
2023/04/20 01:36:57;;;;;;;;;;;;;;;11.85;100.00;99022.81;5029234;28;19932;-39
2023/04/20 01:39:22;;;;;;;;;;;;;;;13.79;100.00;98989.94;5030435;28;19955;-40
2023/04/20 01:41:47;;;;;;;;;;;;;;;12.98;100.00;98986.56;5029526;28;19925;-40
2023/04/20 01:44:13;;;;;;;;;;;;;;;14.23;98.21;98950.81;5028695;28;19920;-39
2023/04/20 01:46:38;;;;;;;;;;;;;;;14.58;95.99;98937.91;5030712;28;19932;-40
2023/04/20 01:49:04;;;;;;;;;;;;;;;14.11;94.77;98933.25;5030619;28;19925;-40
2023/04/20 01:51:29;;;;;;;;;;;;;;;13.44;97.18;98951.91;5028084;28;20285;-40
2023/04/20 01:53:54;;;;;;;;;;;;;;;13.70;98.94;98964.47;5007810;28;20019;-40
2023/04/20 01:56:20;;;;;;;;;;;;;;;13.42;100.00;98985.59;5007707;28;19925;-40
2023/04/20 01:58:45;;;;;;;;;;;;;;;14.20;99.88;98961.28;5026450;28;19924;-40
2023/04/20 02:01:10;;;;;;;;;;;;;;;14.12;97.16;98944.47;5025647;28;19971;-40
2023/04/20 02:03:35;;;;;;;;;;;;;;;11.95;100.00;99012.19;5026195;28;20037;-40
2023/04/20 02:06:01;;;;;;;;;;;;;;;11.51;100.00;99028.34;5026546;28;19931;-40
2023/04/20 02:08:26;;;;;;;;;;;;;;;13.61;100.00;98990.78;5028247;28;19924;-40
2023/04/20 02:10:51;;;;;;;;;;;;;;;14.11;98.64;98943.59;5028229;28;20143;-40
2023/04/20 02:13:16;;;;;;;;;;;;;;;14.57;96.31;98925.03;5029337;28;19921;-40
2023/04/20 02:15:42;;;;;;;;;;;;;;;13.54;100.00;98969.50;5027966;28;19924;-40
2023/04/20 02:18:07;;;;;;;;;;;;;;;12.97;100.00;98964.19;5025949;28;19924;-40
2023/04/20 02:20:34;;;;;;;;;;;;;;;13.35;100.00;98974.66;5029393;28;19963;-40
2023/04/20 02:22:59;;;;;;;;;;;;;;;10.87;100.00;98996.16;5008332;28;20369;-39
2023/04/20 02:25:24;;;;;;;;;;;;;;;10.94;100.00;99047.50;5028467;28;19931;-39
2023/04/20 02:27:50;;;;;;;;;;;;;;;10.70;100.00;99044.81;5028102;28;20521;-39
2023/04/20 02:30:15;;;;;;;;;;;;;;;11.17;100.00;99042.41;5023628;28;20974;-39
2023/04/20 02:32:40;;;;;;;;;;;;;;;10.92;100.00;99033.81;5023486;28;20706;-39
2023/04/20 02:35:06;;;;;;;;;;;;;;;10.10;100.00;99053.47;5030716;28;19927;-39
2023/04/20 02:37:31;;;;;;;;;;;;;;;9.52;100.00;99087.66;5030494;28;20257;-39
2023/04/20 02:39:56;;;;;;;;;;;;;;;9.93;100.00;99074.56;5029331;28;19920;-39
2023/04/20 02:42:21;;;;;;;;;;;;;;;10.37;100.00;99072.44;5013291;28;19925;-39
2023/04/20 02:44:46;;;;;;;;;;;;;;;9.16;100.00;99086.88;5011395;28;19997;-39
2023/04/20 02:47:12;;;;;;;;;;;;;;;11.03;100.00;99066.06;5032469;28;20019;-39
2023/04/20 02:49:37;;;;;;;;;;;;;;;11.36;100.00;99044.34;5011496;28;19975;-39
2023/04/20 02:52:03;;;;;;;;;;;;;;;10.51;100.00;99057.41;5031521;28;19925;-39
2023/04/20 02:54:28;;;;;;;;;;;;;;;9.72;100.00;99063.16;5028941;28;19925;-39
2023/04/20 02:56:53;;;;;;;;;;;;;;;9.88;100.00;99082.41;5030219;28;19925;-39
2023/04/20 02:59:18;;;;;;;;;;;;;;;9.35;100.00;99075.25;5030815;28;19928;-39
2023/04/20 03:01:44;;;;;;;;;;;;;;;10.51;100.00;99054.00;5009919;28;19963;-39
2023/04/20 03:04:09;;;;;;;;;;;;;;;9.89;100.00;99055.78;5031459;28;20077;-39
2023/04/20 03:06:35;;;;;;;;;;;;;;;9.18;100.00;99083.38;5032810;28;19921;-39
2023/04/20 03:09:00;;;;;;;;;;;;;;;9.20;100.00;99091.06;5031312;28;19928;-39
2023/04/20 03:11:26;;;;;;;;;;;;;;;9.62;100.00;99081.41;5030876;28;19920;-39
2023/04/20 03:13:51;;;;;;;;;;;;;;;9.77;100.00;99087.84;5030156;28;20035;-39
2023/04/20 03:16:17;;;;;;;;;;;;;;;9.64;100.00;99096.75;5029790;28;20074;-39
2023/04/20 03:18:42;;;;;;;;;;;;;;;9.30;100.00;99113.06;5030367;28;19968;-39
2023/04/20 03:21:07;;;;;;;;;;;;;;;9.47;100.00;99122.94;5011057;28;19932;-39
2023/04/20 03:23:32;;;;;;;;;;;;;;;9.73;100.00;99132.53;5030649;28;20007;-39
2023/04/20 03:25:57;;;;;;;;;;;;;;;10.70;100.00;99118.66;5030055;28;19917;-39
2023/04/20 03:28:23;;;;;;;;;;;;;;;9.04;100.00;99121.41;5031337;28;19973;-39
2023/04/20 03:30:48;;;;;;;;;;;;;;;9.91;100.00;99128.63;5008452;28;20603;-39
2023/04/20 03:33:13;;;;;;;;;;;;;;;9.81;100.00;99115.16;5030019;28;21930;-39
2023/04/20 03:35:38;;;;;;;;;;;;;;;9.55;100.00;99138.97;5030652;28;19923;-39
2023/04/20 03:38:04;;;;;;;;;;;;;;;9.61;100.00;99141.41;5029864;28;20446;-39
2023/04/20 03:40:29;;;;;;;;;;;;;;;9.50;100.00;99152.84;5030449;28;19960;-39
2023/04/20 03:42:54;;;;;;;;;;;;;;;9.75;100.00;99150.50;5032056;28;19932;-39
2023/04/20 03:45:20;;;;;;;;;;;;;;;8.81;100.00;99157.91;5029181;28;20042;-39
2023/04/20 03:47:45;;;;;;;;;;;;;;;9.56;100.00;99176.69;5029877;28;19925;-39
2023/04/20 03:50:10;;;;;;;;;;;;;;;8.70;100.00;99182.97;5029389;28;20019;-39
2023/04/20 03:52:35;;;;;;;;;;;;;;;8.08;100.00;99198.72;5029890;28;19975;-39
2023/04/20 03:55:01;;;;;;;;;;;;;;;8.73;100.00;99223.97;5030182;28;20003;-39
2023/04/20 03:57:26;;;;;;;;;;;;;;;8.67;100.00;99231.81;5029577;28;19925;-39
2023/04/20 03:59:51;;;;;;;;;;;;;;;8.70;100.00;99239.44;5032013;28;20015;-39
2023/04/20 04:02:17;;;;;;;;;;;;;;;8.37;100.00;99247.75;5033888;28;20008;-39
2023/04/20 04:04:42;;;;;;;;;;;;;;;8.29;100.00;99259.88;5029634;28;19978;-39
2023/04/20 04:07:07;;;;;;;;;;;;;;;8.53;100.00;99268.88;5029585;28;20808;-39
2023/04/20 04:09:32;;;;;;;;;;;;;;;7.88;100.00;99281.13;5029049;28;20097;-39
2023/04/20 04:11:58;;;;;;;;;;;;;;;8.51;100.00;99295.47;5029265;28;19924;-39
2023/04/20 04:14:23;;;;;;;;;;;;;;;8.46;100.00;99292.09;5029540;28;20801;-39
2023/04/20 04:16:48;;;;;;;;;;;;;;;8.70;100.00;99298.50;5028237;28;21786;-39
2023/04/20 04:19:14;;;;;;;;;;;;;;;8.86;100.00;99296.47;5029810;28;20751;-39
2023/04/20 04:21:39;;;;;;;;;;;;;;;7.53;100.00;99290.22;5028529;28;20860;-39
2023/04/20 04:24:04;;;;;;;;;;;;;;;8.78;100.00;99337.69;5028978;28;19925;-39
2023/04/20 04:26:30;;;;;;;;;;;;;;;8.25;100.00;99339.50;5028140;28;20449;-39
2023/04/20 04:28:56;;;;;;;;;;;;;;;9.02;100.00;99359.50;5028820;28;20514;-39
2023/04/20 04:31:22;;;;;;;;;;;;;;;9.42;100.00;99338.97;5028007;28;19921;-39
2023/04/20 04:33:48;;;;;;;;;;;;;;;8.44;100.00;99324.66;5029614;28;20245;-39
2023/04/20 04:36:14;;;;;;;;;;;;;;;8.39;100.00;99345.22;5022147;28;20027;-39
2023/04/20 04:38:39;;;;;;;;;;;;;;;7.44;100.00;99350.16;5026003;28;19928;-39
2023/04/20 04:41:05;;;;;;;;;;;;;;;8.54;100.00;99393.78;5025768;28;19925;-39
2023/04/20 04:43:30;;;;;;;;;;;;;;;8.07;100.00;99381.69;5028751;28;20048;-39
2023/04/20 04:45:57;;;;;;;;;;;;;;;8.04;100.00;99412.53;5008785;28;20147;-39
2023/04/20 04:48:22;;;;;;;;;;;;;;;7.08;100.00;99418.91;5028389;28;19921;-39
2023/04/20 04:50:47;;;;;;;;;;;;;;;7.38;100.00;99441.63;5027998;28;20487;-39
2023/04/20 04:53:13;;;;;;;;;;;;;;;7.51;100.00;99474.75;5026519;28;20055;-39
2023/04/20 04:55:38;;;;;;;;;;;;;;;8.11;100.00;99527.00;5026905;28;19931;-39
2023/04/20 04:58:03;;;;;;;;;;;;;;;7.28;100.00;99522.88;5028276;28;19927;-39
2023/04/20 05:00:30;;;;;;;;;;;;;;;7.88;100.00;99578.59;5006234;28;20642;-39
2023/04/20 05:02:55;;;;;;;;;;;;;;;8.47;100.00;99617.22;5029934;28;20011;-39
2023/04/20 05:05:21;;;;;;;;;;;;;;;7.93;100.00;99600.72;5028382;28;19983;-39
2023/04/20 05:07:46;;;;;;;;;;;;;;;7.00;100.00;99594.84;5029710;28;19923;-39
2023/04/20 05:10:11;;;;;;;;;;;;;;;8.41;100.00;99678.91;5026444;28;19929;-39
2023/04/20 05:12:37;;;;;;;;;;;;;;;8.04;100.00;99648.50;5028001;28;19928;-39
2023/04/20 05:15:02;;;;;;;;;;;;;;;8.59;100.00;99647.84;5030327;28;19921;-39
2023/04/20 05:17:28;;;;;;;;;;;;;;;8.55;100.00;99651.31;5029526;28;19922;-39
2023/04/20 05:19:53;;;;;;;;;;;;;;;8.25;100.00;99637.97;5026292;28;19920;-39
2023/04/20 05:22:18;;;;;;;;;;;;;;;8.47;100.00;99653.16;5028303;28;19924;-39
2023/04/20 05:24:43;;;;;;;;;;;;;;;7.91;100.00;99602.50;5027833;28;19923;-39
2023/04/20 05:27:10;;;;;;;;;;;;;;;8.03;100.00;99626.28;5029913;28;19921;-39
2023/04/20 05:29:35;;;;;;;;;;;;;;;8.65;100.00;99636.66;5026682;28;21311;-39
2023/04/20 05:32:00;;;;;;;;;;;;;;;8.30;100.00;99600.31;5024613;28;20003;-39
2023/04/20 05:34:25;;;;;;;;;;;;;;;8.47;100.00;99601.81;5028775;28;20093;-39
2023/04/20 05:36:51;;;;;;;;;;;;;;;7.81;100.00;99585.50;5029168;28;20043;-39
2023/04/20 05:39:16;;;;;;;;;;;;;;;7.72;100.00;99591.56;5007844;28;19921;-39
2023/04/20 05:41:42;;;;;;;;;;;;;;;8.06;100.00;99618.56;5027657;28;20424;-39
2023/04/20 05:44:07;;;;;;;;;;;;;;;7.87;100.00;99602.53;5028307;28;19951;-39
2023/04/20 05:46:32;;;;;;;;;;;;;;;8.41;100.00;99622.44;5029566;28;20062;-39
2023/04/20 05:48:57;;;;;;;;;;;;;;;8.06;100.00;99618.56;5025518;28;19925;-39
2023/04/20 05:51:24;;;;;;;;;;;;;;;8.52;100.00;99644.50;5026480;28;20722;-39
2023/04/20 05:53:49;;;;;;;;;;;;;;;7.99;100.00;99635.75;5027869;28;20293;-39
2023/04/20 05:56:17;;;;;;;;;;;;;;;7.96;100.00;99634.06;5029567;28;20789;-39
2023/04/20 05:58:42;;;;;;;;;;;;;;;8.08;100.00;99660.44;5027413;28;19921;-39
2023/04/20 06:01:07;;;;;;;;;;;;;;;8.69;100.00;99690.53;5005020;28;19932;-39
2023/04/20 06:03:32;;;;;;;;;;;;;;;7.66;100.00;99647.19;5028478;28;19932;-39
2023/04/20 06:05:58;;;;;;;;;;;;;;;8.17;100.00;99675.72;5027391;28;19920;-39
2023/04/20 06:08:23;;;;;;;;;;;;;;;8.16;100.00;99666.31;5028265;28;20001;-39
2023/04/20 06:10:52;;;;;;;;;;;;;;;9.14;100.00;99680.44;5029122;28;19917;-39
2023/04/20 06:13:17;;;;;;;;;;;;;;;7.80;100.00;99577.81;5033097;28;20316;-39
2023/04/20 06:15:42;;;;;;;;;;;;;;;8.28;100.00;99607.16;5033236;28;19952;-39
2023/04/20 06:18:07;;;;;;;;;;;;;;;8.89;100.00;99620.03;5032685;28;20078;-39
2023/04/20 06:20:32;;;;;;;;;;;;;;;8.90;100.00;99591.75;5030684;28;19954;-39
2023/04/20 06:22:58;;;;;;;;;;;;;;;8.13;100.00;99597.09;5031161;28;19920;-39
2023/04/20 06:25:23;;;;;;;;;;;;;;;9.06;100.00;99618.06;5030098;28;19927;-39
2023/04/20 06:27:48;;;;;;;;;;;;;;;9.18;100.00;99617.84;5032861;28;19920;-39
2023/04/20 06:30:14;;;;;;;;;;;;;;;8.27;100.00;99543.88;5027478;28;19928;-39
2023/04/20 06:32:39;;;;;;;;;;;;;;;8.38;100.00;99575.38;5031999;28;19924;-39
2023/04/20 06:35:05;;;;;;;;;;;;;;;8.06;100.00;99569.81;5031034;28;20583;-39
2023/04/20 06:37:30;;;;;;;;;;;;;;;8.72;100.00;99598.03;5029275;28;20420;-39
2023/04/20 06:39:55;;;;;;;;;;;;;;;8.46;100.00;99584.72;5032425;28;19913;-39
2023/04/20 06:42:21;;;;;;;;;;;;;;;8.50;100.00;99570.97;5031456;28;19935;-39
2023/04/20 06:44:46;;;;;;;;;;;;;;;9.59;100.00;99582.88;5030887;28;19916;-39
2023/04/20 06:47:11;;;;;;;;;;;;;;;8.95;100.00;99512.06;5030198;28;21253;-39
2023/04/20 06:49:38;;;;;;;;;;;;;;;8.44;100.00;99496.59;5011773;28;20374;-39
2023/04/20 06:52:03;;;;;;;;;;;;;;;7.57;100.00;99493.50;5029702;28;20165;-39
2023/04/20 06:54:28;;;;;;;;;;;;;;;8.26;100.00;99562.72;5012643;28;19984;-39
2023/04/20 06:56:53;;;;;;;;;;;;;;;7.95;100.00;99573.34;5030446;28;19924;-39
2023/04/20 06:59:19;;;;;;;;;;;;;;;9.25;100.00;99639.16;5031650;28;19936;-39
2023/04/20 07:01:44;;;;;;;;;;;;;;;8.58;100.00;99617.94;5028775;28;19925;-39
2023/04/20 07:04:09;;;;;;;;;;;;;;;8.47;100.00;99604.38;5010070;28;19925;-39
2023/04/20 07:06:35;;;;;;;;;;;;;;;8.14;100.00;99609.03;5032389;28;19999;-39
2023/04/20 07:09:00;;;;;;;;;;;;;;;8.63;100.00;99623.00;5032265;28;19975;-39
2023/04/20 07:11:25;;;;;;;;;;;;;;;9.00;100.00;99608.72;5032760;28;19971;-39
2023/04/20 07:13:50;;;;;;;;;;;;;;;8.45;100.00;99594.13;5033562;28;19927;-39
2023/04/20 07:16:15;;;;;;;;;;;;;;;8.05;100.00;99611.72;5031785;28;19948;-39
2023/04/20 07:18:41;;;;;;;;;;;;;;;8.86;100.00;99650.91;5031867;28;20030;-39
2023/04/20 07:21:06;;;;;;;;;;;;;;;8.74;100.00;99660.47;5032146;28;19927;-39
2023/04/20 07:23:31;;;;;;;;;;;;;;;9.08;100.00;99661.72;5033890;28;21642;-39
2023/04/20 07:25:56;;;;;;;;;;;;;;;7.83;100.00;99599.16;5032486;28;19920;-39
2023/04/20 07:28:22;;;;;;;;;;;;;;;8.95;100.00;99661.06;5032595;28;19928;-39
2023/04/20 07:30:47;;;;;;;;;;;;;;;8.90;100.00;99642.28;5028262;28;20428;-39
2023/04/20 07:33:12;;;;;;;;;;;;;;;7.92;100.00;99601.63;5033126;28;20399;-39
2023/04/20 07:35:37;;;;;;;;;;;;;;;9.19;100.00;99652.97;5031566;28;20579;-39
2023/04/20 07:38:03;;;;;;;;;;;;;;;9.08;100.00;99639.44;5030435;28;20381;-39
2023/04/20 07:40:28;;;;;;;;;;;;;;;8.13;100.00;99613.31;5030360;28;22072;-39
2023/04/20 07:42:53;;;;;;;;;;;;;;;9.34;100.00;99653.59;5032913;28;19987;-39
2023/04/20 07:45:20;;;;;;;;;;;;;;;8.52;100.00;99616.28;5028511;28;20039;-39
2023/04/20 07:47:47;;;;;;;;;;;;;;;8.72;100.00;99613.44;5025660;28;19982;-39
2023/04/20 07:50:12;;;;;;;;;;;;;;;9.13;100.00;99613.69;5026045;28;20042;-39
2023/04/20 07:52:38;;;;;;;;;;;;;;;9.74;100.00;99583.44;5027911;28;20380;-39
2023/04/20 07:55:04;;;;;;;;;;;;;;;9.77;100.00;99550.81;5030109;28;19984;-39
2023/04/20 07:57:29;;;;;;;;;;;;;;;10.44;100.00;99556.25;5031824;28;20010;-39
2023/04/20 07:59:54;;;;;;;;;;;;;;;9.60;100.00;99491.13;5033319;28;20445;-39
2023/04/20 08:02:19;;;;;;;;;;;;;;;10.51;100.00;99507.22;5014187;28;19932;-39
2023/04/20 08:04:45;;;;;;;;;;;;;;;10.20;100.00;99469.28;5013345;28;20019;-39
2023/04/20 08:07:10;;;;;;;;;;;;;;;9.62;100.00;99425.97;5032307;28;20674;-39
2023/04/20 08:09:35;;;;;;;;;;;;;;;10.55;100.00;99436.72;5031664;28;21724;-39
2023/04/20 08:12:01;;;;;;;;;;;;;;;8.42;100.00;99375.19;5032086;28;19925;-39
2023/04/20 08:14:26;;;;;;;;;;;;;;;9.89;100.00;99444.22;5032529;28;20150;-39
2023/04/20 08:16:51;;;;;;;;;;;;;;;9.75;100.00;99428.25;5031125;28;20059;-39
2023/04/20 08:19:17;;;;;;;;;;;;;;;9.54;100.00;99435.53;5030097;28;19925;-39
2023/04/20 08:21:42;;;;;;;;;;;;;;;10.14;100.00;99426.50;5031653;28;19997;-39
2023/04/20 08:24:07;;;;;;;;;;;;;;;9.88;100.00;99409.09;5033148;28;20023;-39
2023/04/20 08:26:32;;;;;;;;;;;;;;;9.12;100.00;99391.88;5032484;28;19978;-39
2023/04/20 08:29:01;;;;;;;;;;;;;;;9.64;100.00;99410.47;5029487;28;20538;-39
2023/04/20 08:31:26;;;;;;;;;;;;;;;8.99;100.00;99393.81;5028221;28;19936;-39
2023/04/20 08:33:51;;;;;;;;;;;;;;;9.67;100.00;99399.28;5032426;28;19924;-39
2023/04/20 08:36:17;;;;;;;;;;;;;;;10.36;100.00;99401.13;5031337;28;19917;-39
2023/04/20 08:38:42;;;;;;;;;;;;;;;10.01;100.00;99358.19;5028946;28;19920;-39
2023/04/20 08:41:07;;;;;;;;;;;;;;;9.55;100.00;99336.94;5030007;28;19956;-39
2023/04/20 08:43:32;;;;;;;;;;;;;;;10.73;100.00;99368.44;5032221;28;20022;-39
2023/04/20 08:45:59;;;;;;;;;;;;;;;10.50;100.00;99325.28;5009604;28;21571;-39
2023/04/20 08:48:25;;;;;;;;;;;;;;;10.76;100.00;99307.34;5031730;28;19924;-39
2023/04/20 08:50:50;;;;;;;;;;;;;;;10.24;100.00;99264.97;5030817;28;20064;-40
2023/04/20 08:53:15;;;;;;;;;;;;;;;11.07;100.00;99254.97;5030124;28;20423;-39
2023/04/20 08:55:41;;;;;;;;;;;;;;;9.50;100.00;99212.81;5030699;28;20382;-39
2023/04/20 08:58:06;;;;;;;;;;;;;;;10.89;100.00;99236.56;5031432;28;19925;-39
2023/04/20 09:00:31;;;;;;;;;;;;;;;9.92;100.00;99179.19;5028753;28;20525;-39
2023/04/20 09:02:58;;;;;;;;;;;;;;;9.53;100.00;99202.44;5030755;28;20948;-39
2023/04/20 09:05:25;;;;;;;;;;;;;;;11.30;100.00;99203.53;5028651;28;19927;-39
2023/04/20 09:07:52;;;;;;;;;;;;;;;9.51;100.00;99163.09;5028777;28;20011;-39
2023/04/20 09:10:17;;;;;;;;;;;;;;;11.21;100.00;99206.41;5030555;28;20077;-39
2023/04/20 09:12:42;;;;;;;;;;;;;;;9.88;100.00;99146.72;5012741;28;20011;-39
2023/04/20 09:15:08;;;;;;;;;;;;;;;10.08;100.00;99165.91;5032375;28;19921;-39
2023/04/20 09:17:34;;;;;;;;;;;;;;;10.46;100.00;99154.56;5029995;28;20063;-39
2023/04/20 09:19:59;;;;;;;;;;;;;;;10.76;100.00;99137.34;5028936;28;20032;-39
2023/04/20 09:22:28;;;;;;;;;;;;;;;10.15;100.00;99139.09;5028842;28;20015;-39
2023/04/20 09:24:54;;;;;;;;;;;;;;;12.20;100.00;99125.69;5011099;28;19952;-39
2023/04/20 09:27:21;;;;;;;;;;;;;;;11.20;100.00;99073.25;5009255;28;19931;-39
2023/04/20 09:29:59;;;;;;;;;;;;;;;11.88;100.00;99073.50;5026282;28;19925;-39
2023/04/20 09:32:25;;;;;;;;;;;;;;;11.19;100.00;99052.69;5029563;28;19974;-39
2023/04/20 09:34:50;;;;;;;;;;;;;;;10.86;100.00;99030.56;5029716;28;21633;-39
2023/04/20 09:37:16;;;;;;;;;;;;;;;11.99;100.00;99040.41;5029083;28;19924;-39
2023/04/20 09:39:42;;;;;;;;;;;;;;;12.32;100.00;99021.97;5026051;28;20445;-39
2023/04/20 09:42:07;;;;;;;;;;;;;;;10.61;100.00;99006.50;5030424;28;19917;-39
2023/04/20 09:44:32;;;;;;;;;;;;;;;11.57;100.00;99027.31;4996344;28;19986;-39
2023/04/20 09:46:57;;;;;;;;;;;;;;;11.94;100.00;99006.19;5008224;28;20011;-39
2023/04/20 09:49:23;;;;;;;;;;;;;;;10.89;100.00;98991.78;5009950;28;20025;-39
2023/04/20 09:51:48;;;;;;;;;;;;;;;12.17;100.00;99019.97;5009258;28;19975;-40
2023/04/20 09:54:14;;;;;;;;;;;;;;;11.99;100.00;98981.03;5030291;28;20691;-40
2023/04/20 09:56:39;;;;;;;;;;;;;;;10.95;100.00;99003.66;5030109;28;19916;-40
2023/04/20 09:59:05;;;;;;;;;;;;;;;12.68;100.00;98980.06;5025862;28;19929;-40
2023/04/20 10:01:32;;;;;;;;;;;;;;;12.22;100.00;98980.16;5028863;28;20134;-39
2023/04/20 10:03:57;;;;;;;;;;;;;;;11.28;100.00;98991.31;5007334;28;19928;-39
2023/04/20 10:06:27;;;;;;;;;;;;;;;11.81;100.00;98989.44;5007805;28;20029;-39
2023/04/20 10:08:52;;;;;;;;;;;;;;;13.29;100.00;98967.16;5027300;28;20188;-40
2023/04/20 10:11:28;;;;;;;;;;;;;;;12.37;100.00;98981.31;5025627;28;19928;-40
2023/04/20 10:13:54;;;;;;;;;;;;;;;13.24;100.00;98966.50;5028205;28;19932;-40
2023/04/20 10:16:20;;;;;;;;;;;;;;;11.73;100.00;98971.69;5027964;28;19920;-40
2023/04/20 10:18:59;;;;;;;;;;;;;;;12.32;100.00;98975.50;5008080;28;20458;-40
2023/04/20 10:21:24;;;;;;;;;;;;;;;13.95;100.00;98937.47;5008849;28;19916;-39
2023/04/20 10:23:50;;;;;;;;;;;;;;;12.35;100.00;98949.53;5009851;28;21732;-39
2023/04/20 10:26:16;;;;;;;;;;;;;;;13.82;100.00;98929.44;5029145;28;20000;-40
2023/04/20 10:28:43;;;;;;;;;;;;;;;12.29;100.00;98954.94;5027649;28;19928;-40
2023/04/20 10:31:11;;;;;;;;;;;;;;;12.26;100.00;98967.97;5021569;28;20436;-40
2023/04/20 10:33:46;;;;;;;;;;;;;;;12.44;100.00;98953.50;5027540;28;20157;-39
2023/04/20 10:36:20;;;;;;;;;;;;;;;12.37;100.00;98958.06;5029878;28;19921;-40
2023/04/20 10:38:45;;;;;;;;;;;;;;;12.88;100.00;98951.66;5010974;28;19940;-41
2023/04/20 10:41:11;;;;;;;;;;;;;;;13.20;100.00;98946.84;5030237;28;19924;-40
2023/04/20 10:43:42;;;;;;;;;;;;;;;13.37;100.00;98928.88;5033295;28;19921;-40
2023/04/20 10:46:16;;;;;;;;;;;;;;;13.28;100.00;98931.88;5012785;28;19925;-40
2023/04/20 10:48:51;;;;;;;;;;;;;;;13.46;100.00;98925.03;5028820;28;19924;-40
2023/04/20 10:51:17;;;;;;;;;;;;;;;13.79;100.00;98901.94;5030211;28;19932;-40
2023/04/20 10:53:42;;;;;;;;;;;;;;;12.95;100.00;98929.81;5030826;28;19924;-40
2023/04/20 10:56:07;;;;;;;;;;;;;;;12.59;100.00;98931.34;5032016;28;20034;-39
2023/04/20 10:58:32;;;;;;;;;;;;;;;12.33;100.00;98934.09;5030157;28;19924;-40
2023/04/20 11:01:04;;;;;;;;;;;;;;;13.68;100.00;98937.81;5032112;28;19928;-40
2023/04/20 11:03:30;;;;;;;;;;;;;;;12.88;100.00;98928.38;5033750;28;20393;-40
2023/04/20 11:05:59;;;;;;;;;;;;;;;13.74;100.00;98945.31;5032574;28;19970;-40
2023/04/20 11:08:34;;;;;;;;;;;;;;;12.89;100.00;98930.09;5014168;28;19916;-40
2023/04/20 11:10:59;;;;;;;;;;;;;;;13.71;100.00;98927.34;5032705;28;20035;-39
2023/04/20 11:13:27;;;;;;;;;;;;;;;15.84;100.00;98878.63;5033671;28;20548;-41
2023/04/20 11:15:53;;;;;;;;;;;;;;;15.29;100.00;98859.09;5032397;28;20035;-41
2023/04/20 11:18:18;;;;;;;;;;;;;;;13.84;100.00;98908.66;5032545;28;19930;-41
2023/04/20 11:20:50;;;;;;;;;;;;;;;14.13;100.00;98884.81;5031481;28;19920;-41
2023/04/20 11:23:17;;;;;;;;;;;;;;;15.25;100.00;98867.94;5032748;28;19917;-40
2023/04/20 11:25:52;;;;;;;;;;;;;;;14.89;100.00;98863.75;5032582;28;19920;-41
2023/04/20 11:28:17;;;;;;;;;;;;;;;13.68;100.00;98873.13;5031321;28;20557;-41
2023/04/20 11:30:42;;;;;;;;;;;;;;;15.34;100.00;98846.69;5029037;28;19925;-40
2023/04/20 11:33:08;;;;;;;;;;;;;;;13.35;100.00;98860.84;5033887;28;19924;-41
2023/04/20 11:35:37;;;;;;;;;;;;;;;13.90;100.00;98857.44;5033578;28;19917;-41
2023/04/20 11:38:02;;;;;;;;;;;;;;;15.43;100.00;98833.22;5033192;28;19927;-40
2023/04/20 11:40:27;;;;;;;;;;;;;;;13.59;100.00;98868.38;5011139;28;19925;-40
2023/04/20 11:42:53;;;;;;;;;;;;;;;13.38;100.00;98881.41;5033684;28;21689;-40
2023/04/20 11:45:18;;;;;;;;;;;;;;;14.50;100.00;98880.41;5031255;28;21719;-40
2023/04/20 11:47:44;;;;;;;;;;;;;;;14.08;100.00;98881.59;5032934;28;21767;-40
2023/04/20 11:50:10;;;;;;;;;;;;;;;14.38;100.00;98850.78;5031268;28;19927;-40
2023/04/20 11:52:35;;;;;;;;;;;;;;;14.13;100.00;98858.91;5031797;28;19921;-40
2023/04/20 11:55:01;;;;;;;;;;;;;;;14.19;100.00;98857.78;5031088;28;19920;-43
2023/04/20 11:57:26;;;;;;;;;;;;;;;13.25;100.00;98889.75;5032889;28;20351;-40
2023/04/20 11:59:51;;;;;;;;;;;;;;;14.18;100.00;98866.44;5031854;28;19963;-40
2023/04/20 12:02:17;;;;;;;;;;;;;;;13.70;100.00;98886.84;5031055;28;20015;-40
2023/04/20 12:04:42;;;;;;;;;;;;;;;14.92;100.00;98853.25;5030243;28;19931;-40
2023/04/20 12:07:07;;;;;;;;;;;;;;;14.37;100.00;98856.88;5011453;28;19924;-40
2023/04/20 12:09:36;;;;;;;;;;;;;;;15.56;100.00;98842.94;5011647;28;19924;-40
2023/04/20 12:12:02;;;;;;;;;;;;;;;14.72;100.00;98837.91;5032277;28;19929;-40
2023/04/20 12:14:27;;;;;;;;;;;;;;;14.04;100.00;98853.34;5030035;28;19927;-40
2023/04/20 12:16:52;;;;;;;;;;;;;;;16.14;100.00;98805.91;5032412;28;19928;-40
2023/04/20 12:19:17;;;;;;;;;;;;;;;14.76;100.00;98816.09;5030760;28;19946;-40
2023/04/20 12:21:43;;;;;;;;;;;;;;;14.78;100.00;98829.78;5031646;28;19924;-40
2023/04/20 12:24:08;;;;;;;;;;;;;;;14.04;100.00;98849.00;5030387;28;20494;-40
2023/04/20 12:26:35;;;;;;;;;;;;;;;14.95;99.97;98801.22;5032350;28;20070;-40
2023/04/20 12:29:00;;;;;;;;;;;;;;;14.50;100.00;98830.34;5031359;28;21590;-40
2023/04/20 12:31:25;;;;;;;;;;;;;;;14.25;100.00;98846.28;5027963;28;19959;-40
2023/04/20 12:33:50;;;;;;;;;;;;;;;13.71;100.00;98843.72;5031477;28;21813;-40
2023/04/20 12:36:16;;;;;;;;;;;;;;;14.63;100.00;98845.22;5033767;28;19975;-40